createdAt,value
2022-10-04T00:02:00.624Z,14.68
2022-10-04T00:04:04.953Z,17.90
2022-10-04T00:06:12.085Z,17.75
2022-10-04T00:08:19.630Z,18.85
2022-10-04T00:10:23.566Z,13.88
2022-10-04T00:12:31.193Z,17.10
2022-10-04T00:14:35.579Z,15.77
2022-10-04T00:16:39.197Z,16.20
2022-10-04T00:18:44.870Z,18.92
2022-10-04T00:20:53.551Z,17.45
2022-10-04T00:23:21.172Z,19.15
2022-10-04T00:25:33.604Z,17.23
2022-10-04T00:27:36.251Z,15.98
2022-10-04T00:29:39.250Z,14.68
2022-10-04T00:31:59.602Z,15.63
2022-10-04T00:34:04.054Z,14.63
2022-10-04T00:36:26.755Z,16.90
2022-10-04T00:38:28.958Z,14.73
2022-10-04T00:40:33.847Z,19.30
2022-10-04T00:42:43.319Z,20.20
2022-10-04T00:44:49.173Z,13.75
2022-10-04T00:46:51.652Z,20.85
2022-10-04T00:48:55.446Z,12.40
2022-10-04T00:51:04.030Z,16.02
2022-10-04T00:53:13.982Z,17.25
2022-10-04T00:55:22.365Z,14.82
2022-10-04T00:57:34.646Z,22.85
2022-10-04T00:59:49.394Z,13.13
2022-10-04T01:01:53.764Z,13.90
2022-10-04T01:03:57.487Z,16.98
2022-10-04T01:06:00.999Z,15.18
2022-10-04T01:08:09.869Z,14.57
2022-10-04T01:10:15.594Z,16.88
2022-10-04T01:12:23.436Z,15.82
2022-10-04T01:14:39.827Z,15.13
2022-10-04T01:16:41.871Z,15.02
2022-10-04T01:18:43.390Z,14.48
2022-10-04T01:20:58.822Z,13.50
2022-10-04T01:23:00.673Z,14.15
2022-10-04T01:25:02.824Z,16.60
2022-10-04T01:27:04.412Z,12.02
2022-10-04T01:29:23.866Z,17.83
2022-10-04T01:31:26.619Z,16.00
2022-10-04T01:33:28.267Z,14.38
2022-10-04T01:35:30.372Z,13.18
2022-10-04T01:37:31.951Z,17.63
2022-10-04T01:39:33.516Z,16.00
2022-10-04T01:41:42.205Z,11.40
2022-10-04T01:43:47.022Z,14.95
2022-10-04T01:45:54.489Z,16.90
2022-10-04T01:47:59.807Z,16.38
2022-10-04T01:50:09.042Z,15.55
2022-10-04T01:52:18.343Z,14.90
2022-10-04T01:54:22.561Z,15.27
2022-10-04T01:56:26.448Z,12.43
2022-10-04T01:58:30.753Z,12.95
2022-10-04T02:00:32.749Z,12.57
2022-10-04T02:02:52.719Z,14.88
2022-10-04T02:04:56.043Z,15.27
2022-10-04T02:06:59.574Z,12.90
2022-10-04T02:09:02.384Z,10.95
2022-10-04T02:11:04.793Z,19.15
2022-10-04T02:13:10.954Z,14.00
2022-10-04T02:15:12.671Z,10.88
2022-10-04T02:17:14.921Z,13.52
2022-10-04T02:19:16.875Z,10.98
2022-10-04T02:21:18.906Z,11.40
2022-10-04T02:23:21.318Z,11.60
2022-10-04T02:25:23.299Z,10.65
2022-10-04T02:27:31.598Z,15.25
2022-10-04T02:29:33.244Z,11.77
2022-10-04T02:31:55.870Z,12.80
2022-10-04T02:33:58.467Z,12.95
2022-10-04T02:36:00.233Z,12.88
2022-10-04T02:38:10.594Z,8.43
2022-10-04T02:40:13.925Z,9.05
2022-10-04T02:42:24.777Z,8.73
2022-10-04T02:44:29.884Z,8.27
2022-10-04T02:46:37.882Z,14.48
2022-10-04T02:48:59.062Z,10.85
2022-10-04T02:51:06.349Z,7.32
2022-10-04T02:53:11.383Z,6.32
2022-10-04T02:55:15.728Z,9.38
2022-10-04T02:57:19.433Z,8.48
2022-10-04T02:59:21.334Z,10.15
2022-10-04T03:01:40.308Z,8.02
2022-10-04T03:03:45.203Z,9.25
2022-10-04T03:05:53.058Z,5.30
2022-10-04T03:07:54.946Z,9.02
2022-10-04T03:09:56.751Z,7.53
2022-10-04T03:11:59.035Z,5.60
2022-10-04T03:14:02.538Z,9.82
2022-10-04T03:16:04.943Z,8.43
2022-10-04T03:18:06.682Z,9.07
2022-10-04T03:20:09.194Z,13.25
2022-10-04T03:22:12.221Z,10.38
2022-10-04T03:24:16.820Z,8.88
2022-10-04T03:26:28.276Z,8.82
2022-10-04T03:28:30.167Z,11.20
2022-10-04T03:30:32.324Z,11.73
2022-10-04T03:32:33.912Z,13.70
2022-10-04T03:34:39.974Z,11.27
2022-10-04T03:36:41.727Z,8.88
2022-10-04T03:38:43.982Z,8.65
2022-10-04T03:40:51.736Z,13.60
2022-10-04T03:42:53.697Z,9.60
2022-10-04T03:44:57.394Z,11.95
2022-10-04T03:46:59.663Z,10.93
2022-10-04T03:49:01.550Z,10.77
2022-10-04T03:51:05.103Z,17.73
2022-10-04T03:53:18.751Z,12.43
2022-10-04T03:57:23.346Z,12.68
2022-10-04T03:59:26.314Z,10.25
2022-10-04T04:01:37.839Z,13.50
2022-10-04T04:03:50.956Z,17.02
2022-10-04T04:08:11.006Z,10.82
2022-10-04T04:10:23.093Z,11.38
2022-10-04T04:12:35.222Z,13.18
2022-10-04T04:14:38.911Z,11.55
2022-10-04T04:16:40.593Z,15.57
2022-10-04T04:18:43.965Z,13.50
2022-10-04T04:20:46.237Z,10.82
2022-10-04T04:23:16.944Z,15.98
2022-10-04T04:25:22.730Z,12.52
2022-10-04T04:27:29.018Z,14.38
2022-10-04T04:29:37.758Z,14.90
2022-10-04T04:31:45.145Z,13.07
2022-10-04T04:33:51.460Z,11.60
2022-10-04T04:35:55.350Z,15.40
2022-10-04T04:38:04.793Z,13.98
2022-10-04T04:40:20.298Z,10.95
2022-10-04T04:42:31.723Z,14.98
2022-10-04T04:44:33.966Z,11.73
2022-10-04T04:46:38.007Z,21.25
2022-10-04T04:48:43.344Z,14.48
2022-10-04T04:50:49.622Z,13.63
2022-10-04T04:52:55.279Z,13.85
2022-10-04T04:54:57.420Z,14.50
2022-10-04T04:56:59.199Z,12.98
2022-10-04T04:59:03.104Z,10.48
2022-10-04T05:01:06.775Z,10.02
2022-10-04T05:03:18.053Z,13.30
2022-10-04T05:05:32.797Z,14.80
2022-10-04T05:07:34.700Z,9.98
2022-10-04T05:09:40.872Z,10.60
2022-10-04T05:11:42.672Z,10.32
2022-10-04T05:13:47.711Z,10.85
2022-10-04T05:15:52.332Z,8.93
2022-10-04T05:17:53.954Z,12.82
2022-10-04T05:19:57.498Z,11.52
2022-10-04T05:22:01.082Z,11.48
2022-10-04T05:24:11.092Z,11.82
2022-10-04T05:26:13.794Z,9.73
2022-10-04T05:28:16.162Z,12.43
2022-10-04T05:30:42.752Z,11.13
2022-10-04T05:32:44.592Z,10.15
2022-10-04T05:34:48.547Z,14.98
2022-10-04T05:36:58.618Z,14.82
2022-10-04T05:39:06.065Z,10.10
2022-10-04T05:41:09.138Z,9.98
2022-10-04T05:43:31.887Z,8.10
2022-10-04T05:45:33.441Z,16.43
2022-10-04T05:47:35.344Z,7.05
2022-10-04T05:49:44.295Z,8.98
2022-10-04T05:52:00.992Z,13.75
2022-10-04T05:54:03.349Z,10.25
2022-10-04T05:56:17.235Z,10.00
2022-10-04T05:58:31.768Z,10.65
2022-10-04T06:00:39.718Z,9.05
2022-10-04T06:02:51.841Z,8.55
2022-10-04T06:05:12.184Z,7.57
2022-10-04T06:07:25.355Z,6.85
2022-10-04T06:09:45.335Z,6.38
2022-10-04T06:12:06.070Z,10.75
2022-10-04T06:14:10.957Z,7.65
2022-10-04T06:16:20.229Z,11.00
2022-10-04T06:18:24.815Z,9.48
2022-10-04T06:20:41.645Z,8.68
2022-10-04T06:22:47.012Z,11.13
2022-10-04T06:25:09.237Z,9.27
2022-10-04T06:27:11.047Z,12.10
2022-10-04T06:29:18.040Z,8.25
2022-10-04T06:31:24.254Z,10.82
2022-10-04T06:33:35.824Z,7.40
2022-10-04T06:35:37.336Z,8.18
2022-10-04T06:37:38.854Z,6.90
2022-10-04T06:39:43.632Z,7.80
2022-10-04T06:41:47.947Z,8.52
2022-10-04T06:43:49.632Z,6.15
2022-10-04T06:46:06.704Z,10.60
2022-10-04T06:48:27.196Z,6.60
2022-10-04T06:50:33.813Z,6.75
2022-10-04T06:52:48.415Z,6.03
2022-10-04T06:54:52.913Z,8.98
2022-10-04T06:57:19.015Z,10.60
2022-10-04T06:59:34.127Z,8.93
2022-10-04T07:01:37.700Z,9.38
2022-10-04T07:04:17.891Z,10.90
2022-10-04T07:06:41.238Z,9.05
2022-10-04T07:08:50.194Z,10.10
2022-10-04T07:10:55.449Z,9.77
2022-10-04T07:13:03.407Z,6.10
2022-10-04T07:15:10.220Z,9.70
2022-10-04T07:17:13.710Z,6.13
2022-10-04T07:19:53.855Z,9.30
2022-10-04T07:22:03.352Z,9.82
2022-10-04T07:24:09.554Z,10.02
2022-10-04T07:26:22.699Z,11.27
2022-10-04T07:28:49.515Z,6.22
2022-10-04T07:30:58.116Z,8.07
2022-10-04T07:33:00.713Z,7.90
2022-10-04T07:35:13.394Z,6.55
2022-10-04T07:37:15.889Z,10.70
2022-10-04T07:39:20.485Z,12.75
2022-10-04T07:41:28.783Z,10.40
2022-10-04T07:43:32.045Z,6.88
2022-10-04T07:45:35.308Z,9.88
2022-10-04T07:49:39.524Z,6.90
2022-10-04T07:53:53.651Z,13.18
2022-10-04T07:55:57.471Z,9.98
2022-10-04T07:58:20.386Z,6.20
2022-10-04T08:00:23.041Z,11.73
2022-10-04T08:02:31.020Z,8.10
2022-10-04T08:04:33.147Z,7.43
2022-10-04T08:06:36.694Z,6.78
2022-10-04T08:08:58.288Z,4.93
2022-10-04T08:11:03.275Z,10.05
2022-10-04T08:13:10.117Z,6.28
2022-10-04T08:15:14.812Z,13.13
2022-10-04T08:17:29.962Z,8.90
2022-10-04T08:19:47.432Z,11.73
2022-10-04T08:22:00.067Z,8.88
2022-10-04T08:24:04.702Z,8.85
2022-10-04T08:26:12.697Z,9.10
2022-10-04T08:28:51.278Z,10.95
2022-10-04T08:31:02.641Z,6.68
2022-10-04T08:33:09.096Z,6.80
2022-10-04T08:35:19.951Z,4.45
2022-10-04T08:37:46.121Z,6.65
2022-10-04T08:39:53.880Z,4.50
2022-10-04T08:42:20.541Z,3.47
2022-10-04T08:44:41.524Z,5.78
2022-10-04T08:47:03.979Z,5.40
2022-10-04T08:49:05.517Z,5.00
2022-10-04T08:51:13.517Z,6.53
2022-10-04T08:53:18.557Z,5.22
2022-10-04T08:55:38.647Z,5.72
2022-10-04T08:57:43.457Z,4.57
2022-10-04T08:59:46.658Z,4.03
2022-10-04T09:01:51.696Z,5.00
2022-10-04T09:04:05.513Z,3.88
2022-10-04T09:06:07.108Z,3.05
2022-10-04T09:08:11.657Z,2.80
2022-10-04T09:10:13.565Z,3.38
2022-10-04T09:12:21.543Z,4.88
2022-10-04T09:14:42.344Z,2.65
2022-10-04T09:16:48.195Z,6.93
2022-10-04T09:18:56.122Z,6.78
2022-10-04T09:21:04.318Z,3.53
2022-10-04T09:23:11.941Z,4.22
2022-10-04T09:25:13.968Z,6.68
2022-10-04T09:27:53.775Z,7.05
2022-10-04T09:30:11.469Z,2.92
2022-10-04T09:32:16.141Z,2.25
2022-10-04T09:34:23.034Z,3.95
2022-10-04T09:36:40.589Z,7.13
2022-10-04T09:39:25.616Z,4.20
2022-10-04T09:41:34.470Z,3.92
2022-10-04T09:43:56.071Z,2.95
2022-10-04T09:46:05.811Z,3.10
2022-10-04T09:48:25.199Z,4.70
2022-10-04T09:50:42.230Z,7.28
2022-10-04T09:52:50.238Z,9.52
2022-10-04T09:54:51.723Z,4.10
2022-10-04T09:56:53.430Z,7.32
2022-10-04T09:59:03.868Z,8.55
2022-10-04T10:01:11.631Z,6.82
2022-10-04T10:03:15.971Z,9.75
2022-10-04T10:05:36.303Z,6.90
2022-10-04T10:07:56.363Z,6.47
2022-10-04T10:10:37.442Z,9.93
2022-10-04T10:13:11.201Z,6.82
2022-10-04T10:15:15.821Z,3.17
2022-10-04T10:17:36.360Z,5.00
2022-10-04T10:19:37.891Z,4.57
2022-10-04T10:21:39.768Z,4.22
2022-10-04T10:23:56.659Z,6.22
2022-10-04T10:26:16.934Z,4.20
2022-10-04T10:28:34.760Z,4.45
2022-10-04T10:30:59.579Z,5.07
2022-10-04T10:33:01.363Z,4.15
2022-10-04T10:35:15.646Z,4.88
2022-10-04T10:37:23.146Z,3.88
2022-10-04T10:39:27.781Z,3.80
2022-10-04T10:41:56.064Z,5.68
2022-10-04T10:44:18.176Z,5.00
2022-10-04T10:46:38.251Z,8.45
2022-10-04T10:48:45.017Z,3.45
2022-10-04T10:51:10.402Z,3.83
2022-10-04T10:53:20.155Z,5.25
2022-10-04T10:55:41.165Z,6.15
2022-10-04T10:57:42.739Z,4.53
2022-10-04T11:00:08.043Z,4.63
2022-10-04T11:02:47.701Z,4.95
2022-10-04T11:05:08.797Z,5.05
2022-10-04T11:07:16.409Z,4.50
2022-10-04T11:09:34.237Z,3.95
2022-10-04T11:11:56.428Z,4.22
2022-10-04T11:14:36.748Z,3.95
2022-10-04T11:16:50.114Z,3.15
2022-10-04T11:19:10.851Z,3.67
2022-10-04T11:21:30.784Z,3.65
2022-10-04T11:23:51.847Z,5.78
2022-10-04T11:26:19.799Z,3.75
2022-10-04T11:28:24.322Z,4.20
2022-10-04T11:30:27.064Z,4.70
2022-10-04T11:32:55.103Z,1.73
2022-10-04T11:34:59.943Z,4.80
2022-10-04T11:37:17.201Z,2.90
2022-10-04T11:39:54.335Z,5.00
2022-10-04T11:42:02.081Z,3.13
2022-10-04T11:44:21.592Z,3.15
2022-10-04T11:46:27.214Z,5.53
2022-10-04T11:48:48.523Z,5.75
2022-10-04T11:51:03.158Z,4.65
2022-10-04T11:53:13.892Z,5.57
2022-10-04T11:55:21.104Z,2.80
2022-10-04T11:57:32.150Z,3.65
2022-10-04T11:59:39.563Z,4.60
2022-10-04T12:01:50.316Z,5.07
2022-10-04T12:04:01.028Z,7.82
2022-10-04T12:06:08.089Z,4.43
2022-10-04T12:08:09.603Z,3.67
2022-10-04T12:10:21.857Z,3.47
2022-10-04T12:12:48.384Z,3.95
2022-10-04T12:14:57.192Z,2.65
2022-10-04T12:17:08.578Z,2.53
2022-10-04T12:19:25.724Z,6.10
2022-10-04T12:21:30.032Z,5.20
2022-10-04T12:23:37.960Z,3.90
2022-10-04T12:26:00.858Z,2.65
2022-10-04T12:28:14.546Z,3.38
2022-10-04T12:30:22.473Z,4.85
2022-10-04T12:32:28.491Z,3.80
2022-10-04T12:34:36.367Z,3.47
2022-10-04T12:36:44.917Z,5.93
2022-10-04T12:39:13.184Z,2.95
2022-10-04T12:41:33.624Z,3.60
2022-10-04T12:43:40.350Z,2.70
2022-10-04T12:45:41.993Z,3.65
2022-10-04T12:47:51.970Z,4.07
2022-10-04T12:49:54.753Z,5.72
2022-10-04T12:52:14.924Z,4.65
2022-10-04T12:54:37.895Z,5.47
2022-10-04T12:56:55.167Z,5.63
2022-10-04T12:59:15.362Z,9.05
2022-10-04T13:01:30.343Z,8.40
2022-10-04T13:03:32.239Z,5.35
2022-10-04T13:05:42.412Z,4.78
2022-10-04T13:07:46.977Z,4.90
2022-10-04T13:10:23.056Z,5.15
2022-10-04T13:12:47.050Z,3.95
2022-10-04T13:15:07.478Z,6.28
2022-10-04T13:17:27.305Z,3.65
2022-10-04T13:19:40.334Z,6.78
2022-10-04T13:21:45.111Z,10.02
2022-10-04T13:23:47.182Z,3.90
2022-10-04T13:26:04.167Z,4.35
2022-10-04T13:28:23.085Z,5.13
2022-10-04T13:30:43.467Z,4.10
2022-10-04T13:32:52.884Z,5.45
2022-10-04T13:34:54.445Z,5.88
2022-10-04T13:37:11.712Z,7.93
2022-10-04T13:39:13.938Z,7.28
2022-10-04T13:41:20.074Z,5.35
2022-10-04T13:43:34.114Z,5.63
2022-10-04T13:45:36.336Z,6.07
2022-10-04T13:47:47.342Z,5.95
2022-10-04T13:50:04.601Z,5.95
2022-10-04T13:52:33.619Z,5.75
2022-10-04T13:54:56.343Z,8.32
2022-10-04T13:57:04.499Z,5.60
2022-10-04T13:59:25.067Z,10.77
2022-10-04T14:01:45.783Z,8.25
2022-10-04T14:03:47.952Z,10.15
2022-10-04T14:05:49.497Z,10.93
2022-10-04T14:08:11.840Z,4.40
2022-10-04T14:10:32.315Z,4.95
2022-10-04T14:12:46.495Z,5.03
2022-10-04T14:14:47.990Z,4.60
2022-10-04T14:17:10.038Z,3.28
2022-10-04T14:19:14.550Z,4.75
2022-10-04T14:21:34.875Z,4.10
2022-10-04T14:23:56.362Z,7.60
2022-10-04T14:26:15.123Z,4.00
2022-10-04T14:28:34.913Z,4.28
2022-10-04T14:30:48.529Z,5.30
2022-10-04T14:32:51.922Z,6.13
2022-10-04T14:34:59.955Z,6.97
2022-10-04T14:37:28.295Z,7.90
2022-10-04T14:39:54.839Z,5.20
2022-10-04T14:41:56.622Z,6.75
2022-10-04T14:44:17.319Z,7.60
2022-10-04T14:46:38.974Z,7.03
2022-10-04T14:48:43.634Z,6.63
2022-10-04T14:50:46.056Z,8.10
2022-10-04T14:52:51.934Z,5.07
2022-10-04T14:54:56.271Z,5.13
2022-10-04T14:57:07.951Z,6.15
2022-10-04T14:59:16.813Z,6.20
2022-10-04T15:01:18.556Z,4.72
2022-10-04T15:03:30.387Z,4.03
2022-10-04T15:05:38.688Z,4.80
2022-10-04T15:07:46.859Z,4.10
2022-10-04T15:09:51.948Z,6.82
2022-10-04T15:14:36.817Z,5.55
2022-10-04T15:16:41.636Z,7.05
2022-10-04T15:19:09.362Z,3.75
2022-10-04T15:21:23.158Z,3.17
2022-10-04T15:23:37.768Z,7.00
2022-10-04T15:25:40.292Z,4.03
2022-10-04T15:27:50.450Z,4.07
2022-10-04T15:30:01.388Z,2.65
2022-10-04T15:32:06.419Z,4.68
2022-10-04T15:34:14.219Z,4.18
2022-10-04T15:36:37.990Z,3.30
2022-10-04T15:38:47.540Z,6.03
2022-10-04T15:41:08.610Z,4.10
2022-10-04T15:43:10.482Z,4.05
2022-10-04T15:45:14.362Z,5.80
2022-10-04T15:47:36.275Z,3.78
2022-10-04T15:49:57.134Z,6.28
2022-10-04T15:52:03.188Z,5.45
2022-10-04T15:54:18.782Z,7.53
2022-10-04T15:56:27.125Z,7.95
2022-10-04T15:58:32.009Z,3.70
2022-10-04T16:00:52.513Z,7.68
2022-10-04T16:03:09.213Z,9.57
2022-10-04T16:05:14.777Z,6.22
2022-10-04T16:07:29.863Z,10.02
2022-10-04T16:10:04.083Z,6.32
2022-10-04T16:12:20.403Z,6.05
2022-10-04T16:14:42.070Z,6.35
2022-10-04T16:16:48.418Z,5.30
2022-10-04T16:19:09.931Z,7.80
2022-10-04T16:21:17.622Z,5.97
2022-10-04T16:23:23.976Z,3.53
2022-10-04T16:25:26.227Z,6.45
2022-10-04T16:27:33.598Z,7.40
2022-10-04T16:29:40.726Z,7.85
2022-10-04T16:32:05.080Z,6.28
2022-10-04T16:34:09.971Z,7.93
2022-10-04T16:36:19.023Z,8.43
2022-10-04T16:38:23.764Z,6.47
2022-10-04T16:40:34.641Z,11.80
2022-10-04T16:42:36.423Z,7.72
2022-10-04T16:44:52.784Z,9.00
2022-10-04T16:46:56.292Z,6.95
2022-10-04T16:49:03.535Z,9.07
2022-10-04T16:51:17.697Z,9.90
2022-10-04T16:53:32.024Z,11.05
2022-10-04T16:55:37.985Z,10.15
2022-10-04T16:57:43.291Z,11.70
2022-10-04T16:59:46.807Z,10.60
2022-10-04T17:02:04.442Z,18.48
2022-10-04T17:04:24.563Z,12.60
2022-10-04T17:06:31.242Z,9.40
2022-10-04T17:08:48.282Z,12.45
2022-10-04T17:10:49.820Z,14.27
2022-10-04T17:12:55.435Z,15.13
2022-10-04T17:15:08.195Z,15.48
2022-10-04T17:17:24.593Z,12.80
2022-10-04T17:19:29.269Z,11.98
2022-10-04T17:21:38.082Z,17.98
2022-10-04T17:24:03.416Z,11.63
2022-10-04T17:26:05.087Z,13.95
2022-10-04T17:28:26.467Z,15.35
2022-10-04T17:30:30.493Z,17.95
2022-10-04T17:32:41.412Z,19.70
2022-10-04T17:34:46.997Z,13.10
2022-10-04T17:36:51.091Z,12.13
2022-10-04T17:38:58.676Z,18.27
2022-10-04T17:41:03.204Z,22.25
2022-10-04T17:43:23.129Z,17.52
2022-10-04T17:45:43.218Z,18.70
2022-10-04T17:48:06.853Z,20.10
2022-10-04T17:50:33.861Z,19.58
2022-10-04T17:53:00.874Z,22.60
2022-10-04T17:55:26.138Z,16.48
2022-10-04T17:57:35.246Z,21.00
2022-10-04T17:59:48.529Z,18.45
2022-10-04T18:02:04.376Z,21.00
2022-10-04T18:04:06.522Z,19.85
2022-10-04T18:06:25.643Z,23.70
2022-10-04T18:08:39.331Z,16.67
2022-10-04T18:10:55.475Z,20.42
2022-10-04T18:13:11.321Z,26.35
2022-10-04T18:15:29.514Z,19.42
2022-10-04T18:17:34.982Z,26.77
2022-10-04T18:19:44.522Z,19.10
2022-10-04T18:21:51.797Z,27.25
2022-10-04T18:23:54.941Z,24.38
2022-10-04T18:26:01.156Z,24.77
2022-10-04T18:28:11.003Z,27.08
2022-10-04T18:30:15.905Z,25.85
2022-10-04T18:32:27.014Z,23.52
2022-10-04T18:34:29.762Z,23.50
2022-10-04T18:36:46.598Z,21.40
2022-10-04T18:39:18.034Z,26.15
2022-10-04T18:41:23.252Z,25.13
2022-10-04T18:44:00.361Z,22.42
2022-10-04T18:46:13.906Z,24.98
2022-10-04T18:48:18.322Z,25.42
2022-10-04T18:50:19.853Z,27.10
2022-10-04T18:52:26.665Z,24.42
2022-10-04T18:54:28.820Z,25.55
2022-10-04T18:56:34.188Z,25.75
2022-10-04T18:59:13.659Z,26.23
2022-10-04T19:01:53.801Z,26.27
2022-10-04T19:04:03.332Z,27.33
2022-10-04T19:06:04.862Z,28.40
2022-10-04T19:08:09.650Z,28.80
2022-10-04T19:10:29.968Z,27.23
2022-10-04T19:12:54.617Z,25.60
2022-10-04T19:15:07.331Z,26.70
2022-10-04T19:17:17.742Z,26.55
2022-10-04T19:19:22.353Z,32.55
2022-10-04T19:21:43.901Z,29.92
2022-10-04T19:23:51.288Z,27.88
2022-10-04T19:26:33.228Z,29.25
2022-10-04T19:28:35.967Z,30.08
2022-10-04T19:30:56.188Z,28.58
2022-10-04T19:33:06.871Z,31.35
2022-10-04T19:35:14.498Z,28.58
2022-10-04T19:37:20.140Z,30.25
2022-10-04T19:39:40.809Z,31.58
2022-10-04T19:41:51.592Z,29.35
2022-10-04T19:44:11.751Z,27.52
2022-10-04T19:46:31.668Z,33.88
2022-10-04T19:48:38.745Z,28.67
2022-10-04T19:50:45.248Z,33.25
2022-10-04T19:52:46.839Z,30.90
2022-10-04T19:54:51.768Z,32.20
2022-10-04T19:56:54.905Z,33.53
2022-10-04T19:59:05.344Z,32.10
2022-10-04T20:01:11.408Z,33.05
2022-10-04T20:03:13.376Z,33.58
2022-10-04T20:05:16.002Z,29.30
2022-10-04T20:07:24.930Z,35.78
2022-10-04T20:09:43.978Z,32.25
2022-10-04T20:11:50.006Z,31.75
2022-10-04T20:14:11.689Z,37.42
2022-10-04T20:16:14.627Z,31.52
2022-10-04T20:18:37.499Z,31.17
2022-10-04T20:20:39.230Z,38.70
2022-10-04T20:23:01.186Z,37.08
2022-10-04T20:25:02.880Z,33.90
2022-10-04T20:27:06.697Z,35.22
2022-10-04T20:29:08.366Z,30.75
2022-10-04T20:31:19.086Z,31.17
2022-10-04T20:33:37.061Z,32.72
2022-10-04T20:35:57.877Z,33.10
2022-10-04T20:38:20.337Z,32.35
2022-10-04T20:40:21.404Z,38.38
2022-10-04T20:42:29.930Z,33.72
2022-10-04T20:44:41.164Z,37.60
2022-10-04T20:46:50.754Z,33.25
2022-10-04T20:48:55.835Z,33.28
2022-10-04T20:51:06.373Z,34.08
2022-10-04T20:53:17.450Z,33.47
2022-10-04T20:55:28.054Z,31.55
2022-10-04T20:57:30.244Z,36.42
2022-10-04T20:59:32.210Z,34.15
2022-10-04T21:01:37.776Z,32.05
2022-10-04T21:03:40.471Z,36.35
2022-10-04T21:05:42.783Z,43.25
2022-10-04T21:07:44.626Z,37.38
2022-10-04T21:09:46.478Z,29.98
2022-10-04T21:11:51.105Z,36.47
2022-10-04T21:13:57.363Z,32.67
2022-10-04T21:16:00.523Z,34.92
2022-10-04T21:18:07.071Z,39.80
2022-10-04T21:20:34.789Z,34.45
2022-10-04T21:22:36.897Z,37.97
2022-10-04T21:24:50.938Z,33.22
2022-10-04T21:26:56.819Z,35.85
2022-10-04T21:28:58.662Z,36.42
2022-10-04T21:31:00.866Z,34.43
2022-10-04T21:33:02.363Z,34.08
2022-10-04T21:35:05.304Z,38.42
2022-10-04T21:37:07.036Z,37.10
2022-10-04T21:39:08.566Z,40.45
2022-10-04T21:41:10.264Z,31.48
2022-10-04T21:43:12.091Z,39.25
2022-10-04T21:45:13.666Z,36.30
2022-10-04T21:47:15.534Z,30.73
2022-10-04T21:49:17.246Z,45.93
2022-10-04T21:51:18.808Z,36.05
2022-10-04T21:53:20.629Z,37.53
2022-10-04T21:55:22.375Z,34.05
2022-10-04T21:57:24.022Z,39.58
2022-10-04T21:59:25.940Z,38.17
2022-10-04T22:01:27.796Z,34.90
2022-10-04T22:03:29.446Z,34.00
2022-10-04T22:05:31.361Z,41.60
2022-10-04T22:07:33.073Z,38.17
2022-10-04T22:09:35.943Z,37.60
2022-10-04T22:11:37.808Z,39.58
2022-10-04T22:13:39.761Z,37.83
2022-10-04T22:15:41.539Z,34.95
2022-10-04T22:17:43.049Z,37.97
2022-10-04T22:19:44.747Z,37.20
2022-10-04T22:21:46.287Z,43.00
2022-10-04T22:23:48.389Z,45.47
2022-10-04T22:25:50.594Z,40.25
2022-10-04T22:27:53.255Z,37.20
2022-10-04T22:29:57.707Z,39.75
2022-10-04T22:31:59.606Z,32.17
2022-10-04T22:34:01.369Z,36.47
2022-10-04T22:36:12.656Z,33.40
2022-10-04T22:38:14.389Z,42.63
2022-10-04T22:40:23.705Z,36.65
2022-10-04T22:42:27.742Z,40.30
2022-10-04T22:44:31.240Z,37.58
2022-10-04T22:46:36.055Z,39.22
2022-10-04T22:48:37.572Z,38.05
2022-10-04T22:50:39.611Z,42.47
2022-10-04T22:52:41.159Z,38.53
2022-10-04T22:54:44.059Z,35.60
2022-10-04T22:56:46.490Z,40.42
2022-10-04T22:58:48.211Z,33.90
2022-10-04T23:00:49.805Z,40.47
2022-10-04T23:02:51.626Z,35.50
2022-10-04T23:04:55.086Z,33.53
2022-10-04T23:06:56.970Z,34.95
2022-10-04T23:08:59.323Z,40.78
2022-10-04T23:11:00.887Z,40.57
2022-10-04T23:13:02.538Z,33.40
2022-10-04T23:15:06.355Z,36.80
2022-10-04T23:17:24.475Z,32.13
2022-10-04T23:19:26.388Z,30.63
2022-10-04T23:21:30.888Z,35.17
2022-10-04T23:23:32.738Z,29.80
2022-10-04T23:25:34.838Z,35.72
2022-10-04T23:27:36.753Z,30.88
2022-10-04T23:29:38.654Z,28.50
2022-10-04T23:31:40.631Z,29.33
2022-10-04T23:33:42.399Z,28.75
2022-10-04T23:35:44.242Z,30.50
2022-10-04T23:37:46.365Z,29.08
2022-10-04T23:39:48.835Z,29.55
2022-10-04T23:41:51.041Z,26.52
2022-10-04T23:43:52.823Z,28.90
2022-10-04T23:45:56.320Z,31.55
2022-10-04T23:48:00.936Z,30.98
2022-10-04T23:50:07.435Z,27.77
2022-10-04T23:52:13.670Z,26.52
2022-10-04T23:54:17.057Z,26.73
2022-10-04T23:56:23.233Z,28.38
2022-10-04T23:58:29.918Z,25.17
